Time;durP1;ratioP1;P1;durP2;ratioP2;P2;SDS_P1;SDS_P2;PMS_P1;PMS_P2;Temp;Humidity;BMP_temperature;BMP_pressure;BME280_temperature;BME280_humidity;BME280_pressure;Samples;Min_cycle;Max_cycle;Signal;HPM_P1;HPM_P2
2021/11/23 00:00:09;;;;;;;;;;;;;;;13.70;66.62;102792.22;1052589;28;716;-60
2021/11/23 00:01:00;;;;;;;;;;;;;;;13.71;66.64;102794.81;1052086;28;844;-62
2021/11/23 00:01:50;;;;;;;;;;;;;;;13.70;67.44;102797.56;1052391;28;611;-62
2021/11/23 00:02:40;;;;;;;;;;;;;;;13.70;67.18;102792.22;1052495;28;686;-61
2021/11/23 00:03:31;;;;;;;;;;;;;;;13.71;66.79;102793.94;1052016;28;1905;-61
2021/11/23 00:04:21;;;;;;;;;;;;;;;13.72;66.74;102787.66;1052572;28;914;-62
2021/11/23 00:05:12;;;;;;;;;;;;;;;13.71;66.82;102793.94;1052140;28;729;-62
2021/11/23 00:06:02;;;;;;;;;;;;;;;13.71;66.83;102788.59;1052389;28;602;-62
2021/11/23 00:06:53;;;;;;;;;;;;;;;13.71;66.51;102788.59;1052137;28;697;-62
2021/11/23 00:07:43;;;;;;;;;;;;;;;13.71;67.25;102799.31;1052238;28;944;-62
2021/11/23 00:08:34;;;;;;;;;;;;;;;13.69;67.40;102785.97;1052383;28;588;-62
2021/11/23 00:09:24;;;;;;;;;;;;;;;13.69;67.48;102787.78;1052853;28;855;-62
2021/11/23 00:10:14;;;;;;;;;;;;;;;13.68;67.35;102784.25;1052459;28;693;-62
2021/11/23 00:11:05;;;;;;;;;;;;;;;13.69;66.74;102779.75;1052217;28;658;-62
2021/11/23 00:11:55;;;;;;;;;;;;;;;13.68;67.11;102784.25;1052449;28;848;-62
2021/11/23 00:12:46;;;;;;;;;;;;;;;13.68;66.57;102786.91;1051959;28;691;-62
2021/11/23 00:13:36;;;;;;;;;;;;;;;13.67;67.00;102793.22;1052286;28;740;-62
2021/11/23 00:14:26;;;;;;;;;;;;;;;13.68;67.64;102788.72;1052470;28;690;-61
2021/11/23 00:15:17;;;;;;;;;;;;;;;13.68;66.49;102786.03;1046980;28;1695;-61
2021/11/23 00:16:07;;;;;;;;;;;;;;;13.68;67.38;102786.03;1044670;28;796;-61
2021/11/23 00:16:58;;;;;;;;;;;;;;;13.68;67.30;102784.25;1049134;28;1605;-61
2021/11/23 00:17:48;;;;;;;;;;;;;;;13.68;66.96;102788.72;1047637;28;788;-61
2021/11/23 00:18:38;;;;;;;;;;;;;;;13.68;67.49;102783.38;1047658;28;650;-60
2021/11/23 00:19:29;;;;;;;;;;;;;;;13.69;66.56;102790.47;1047622;28;761;-62
2021/11/23 00:20:20;;;;;;;;;;;;;;;13.68;66.53;102794.97;1047829;28;767;-61
2021/11/23 00:21:10;;;;;;;;;;;;;;;13.68;67.02;102794.97;1048777;28;747;-61
2021/11/23 00:22:00;;;;;;;;;;;;;;;13.67;67.38;102793.22;1048948;28;759;-61
2021/11/23 00:22:54;;;;;;;;;;;;;;;13.66;67.40;102791.47;1047452;28;1369;-60
2021/11/23 00:23:44;;;;;;;;;;;;;;;13.67;67.40;102786.97;1048496;28;1904;-62
2021/11/23 00:24:35;;;;;;;;;;;;;;;13.68;66.97;102791.41;1047478;28;666;-61
2021/11/23 00:25:26;;;;;;;;;;;;;;;13.68;66.89;102794.97;1047762;28;626;-61
2021/11/23 00:26:17;;;;;;;;;;;;;;;13.68;67.22;102786.03;1048190;28;751;-62
2021/11/23 00:27:07;;;;;;;;;;;;;;;13.67;67.10;102789.66;1048659;28;716;-61
2021/11/23 00:27:57;;;;;;;;;;;;;;;13.67;67.50;102781.63;1048880;28;674;-61
2021/11/23 00:28:48;;;;;;;;;;;;;;;13.65;67.29;102784.38;1048737;28;603;-62
2021/11/23 00:29:38;;;;;;;;;;;;;;;13.65;67.02;102789.72;1045018;28;766;-62
2021/11/23 00:30:31;;;;;;;;;;;;;;;13.66;67.18;102790.59;1044080;28;791;-62
2021/11/23 00:31:22;;;;;;;;;;;;;;;13.65;67.28;102783.50;1048229;28;717;-62
2021/11/23 00:32:12;;;;;;;;;;;;;;;13.66;66.85;102785.25;1048938;28;778;-62
2021/11/23 00:33:03;;;;;;;;;;;;;;;13.67;67.06;102786.97;1049346;28;657;-61
2021/11/23 00:33:53;;;;;;;;;;;;;;;13.67;66.57;102792.34;1048813;28;678;-62
2021/11/23 00:34:44;;;;;;;;;;;;;;;13.66;66.65;102790.59;1048883;28;808;-61
2021/11/23 00:35:34;;;;;;;;;;;;;;;13.65;67.15;102794.22;1049466;28;701;-62
2021/11/23 00:36:25;;;;;;;;;;;;;;;13.65;66.75;102789.72;1044157;28;695;-62
2021/11/23 00:37:15;;;;;;;;;;;;;;;13.65;67.82;102791.53;1045681;28;669;-62
2021/11/23 00:38:06;;;;;;;;;;;;;;;13.65;67.19;102794.22;1049270;28;697;-61
2021/11/23 00:38:56;;;;;;;;;;;;;;;13.65;66.73;102788.88;1048165;28;767;-63
2021/11/23 00:39:47;;;;;;;;;;;;;;;13.64;67.65;102784.44;1049017;28;645;-62
2021/11/23 00:40:37;;;;;;;;;;;;;;;13.64;67.35;102792.47;1043624;28;767;-62
2021/11/23 00:41:27;;;;;;;;;;;;;;;13.63;67.64;102791.63;1045607;28;736;-62
2021/11/23 00:42:18;;;;;;;;;;;;;;;13.64;67.20;102789.81;1049358;28;614;-65
2021/11/23 00:43:08;;;;;;;;;;;;;;;13.65;67.22;102788.88;1049104;28;717;-62
2021/11/23 00:43:59;;;;;;;;;;;;;;;13.64;67.57;102793.34;1049006;28;657;-63
2021/11/23 00:44:49;;;;;;;;;;;;;;;13.64;67.23;102784.44;1048218;28;826;-63
2021/11/23 00:45:39;;;;;;;;;;;;;;;13.64;67.53;102784.44;1048584;28;701;-62
2021/11/23 00:46:30;;;;;;;;;;;;;;;13.64;67.12;102787.13;1050034;28;1561;-62
2021/11/23 00:47:20;;;;;;;;;;;;;;;13.63;67.32;102785.38;1052150;28;862;-62
2021/11/23 00:48:11;;;;;;;;;;;;;;;13.64;66.69;102789.81;1047773;28;756;-62
2021/11/23 00:49:01;;;;;;;;;;;;;;;13.64;67.45;102785.31;1047897;28;761;-61
2021/11/23 00:49:52;;;;;;;;;;;;;;;13.64;66.95;102787.13;1052055;28;646;-61
2021/11/23 00:50:42;;;;;;;;;;;;;;;13.64;67.08;102779.09;1052655;28;674;-60
2021/11/23 00:51:32;;;;;;;;;;;;;;;13.65;67.54;102783.50;1052055;28;913;-61
2021/11/23 00:52:23;;;;;;;;;;;;;;;13.64;66.81;102787.13;1051953;28;646;-60
2021/11/23 00:53:13;;;;;;;;;;;;;;;13.63;66.84;102785.38;1052116;28;740;-61
2021/11/23 00:54:04;;;;;;;;;;;;;;;13.62;66.85;102783.66;1052327;28;693;-61
2021/11/23 00:54:54;;;;;;;;;;;;;;;13.62;67.15;102783.66;1048791;28;1675;-61
2021/11/23 00:55:45;;;;;;;;;;;;;;;13.62;67.66;102775.59;1048297;28;746;-61
2021/11/23 00:56:36;;;;;;;;;;;;;;;13.62;67.59;102789.00;1048878;28;705;-61
2021/11/23 00:57:26;;;;;;;;;;;;;;;13.62;66.82;102778.28;1048162;28;765;-61
2021/11/23 00:58:17;;;;;;;;;;;;;;;13.61;67.29;102780.13;1048300;28;768;-60
2021/11/23 00:59:07;;;;;;;;;;;;;;;13.62;67.12;102783.66;1048111;28;678;-60
2021/11/23 00:59:57;;;;;;;;;;;;;;;13.62;67.34;102779.16;1048144;28;930;-61
2021/11/23 01:00:48;;;;;;;;;;;;;;;13.61;67.80;102781.94;1047890;28;690;-61
2021/11/23 01:01:39;;;;;;;;;;;;;;;13.60;67.55;102775.72;1048544;28;796;-62
2021/11/23 01:02:29;;;;;;;;;;;;;;;13.62;67.40;102772.94;1048234;28;701;-62
2021/11/23 01:03:20;;;;;;;;;;;;;;;13.59;66.96;102779.31;1048387;28;653;-62
2021/11/23 01:04:10;;;;;;;;;;;;;;;13.59;67.23;102768.63;1048923;28;698;-61
2021/11/23 01:05:01;;;;;;;;;;;;;;;13.60;66.68;102770.34;1048097;28;618;-61
2021/11/23 01:05:51;;;;;;;;;;;;;;;13.59;67.77;102768.63;1048089;28;814;-61
2021/11/23 01:06:42;;;;;;;;;;;;;;;13.60;67.75;102777.53;1049171;28;704;-62
2021/11/23 01:07:32;;;;;;;;;;;;;;;13.60;66.89;102767.69;1048185;28;690;-62
2021/11/23 01:08:23;;;;;;;;;;;;;;;13.59;67.69;102771.28;1048280;28;694;-62
2021/11/23 01:09:14;;;;;;;;;;;;;;;13.58;66.85;102758.84;1048608;28;684;-61
2021/11/23 01:10:04;;;;;;;;;;;;;;;13.58;66.79;102768.69;1048124;28;843;-63
2021/11/23 01:10:55;;;;;;;;;;;;;;;13.59;67.58;102765.06;1048347;28;657;-61
2021/11/23 01:11:45;;;;;;;;;;;;;;;13.60;67.67;102769.47;1047980;28;673;-61
2021/11/23 01:12:35;;;;;;;;;;;;;;;13.57;66.96;102764.25;1048278;28;629;-61
2021/11/23 01:13:26;;;;;;;;;;;;;;;13.59;67.89;102765.94;1047942;28;626;-61
2021/11/23 01:14:16;;;;;;;;;;;;;;;13.59;67.18;102767.75;1048057;28;1694;-61
2021/11/23 01:15:07;;;;;;;;;;;;;;;13.57;67.18;102765.13;1048832;28;684;-60
2021/11/23 01:15:57;;;;;;;;;;;;;;;13.56;67.41;102763.41;1048123;28;626;-61
2021/11/23 01:16:48;;;;;;;;;;;;;;;13.57;67.19;102759.78;1048684;28;649;-62
2021/11/23 01:17:39;;;;;;;;;;;;;;;13.58;67.46;102768.69;1047899;28;741;-61
2021/11/23 01:18:32;;;;;;;;;;;;;;;13.58;67.22;102760.66;1048000;28;760;-61
2021/11/23 01:19:23;;;;;;;;;;;;;;;13.58;66.80;102769.56;1047988;28;692;-62
2021/11/23 01:20:13;;;;;;;;;;;;;;;13.60;66.89;102774.84;1048053;28;667;-61
2021/11/23 01:21:03;;;;;;;;;;;;;;;13.59;67.52;102767.75;1047858;28;709;-61
2021/11/23 01:21:54;;;;;;;;;;;;;;;13.58;67.42;102764.19;1047725;28;682;-61
2021/11/23 01:22:44;;;;;;;;;;;;;;;13.58;67.31;102766.00;1047992;28;1375;-61
2021/11/23 01:23:35;;;;;;;;;;;;;;;13.57;66.93;102775.84;1047530;28;1965;-61
2021/11/23 01:24:25;;;;;;;;;;;;;;;13.55;67.40;102765.19;1052126;28;685;-61
2021/11/23 01:25:16;;;;;;;;;;;;;;;13.55;67.32;102773.25;1052144;28;716;-60
2021/11/23 01:26:06;;;;;;;;;;;;;;;13.55;67.00;102767.00;1051928;28;630;-61
2021/11/23 01:26:56;;;;;;;;;;;;;;;13.54;67.80;102760.78;1052020;28;1173;-60
2021/11/23 01:27:47;;;;;;;;;;;;;;;13.55;67.95;102758.97;1051931;28;713;-61
2021/11/23 01:28:39;;;;;;;;;;;;;;;13.54;68.06;102766.13;1051918;28;733;-60
2021/11/23 01:29:30;;;;;;;;;;;;;;;13.55;67.45;102758.97;1052472;28;689;-61
2021/11/23 01:30:20;;;;;;;;;;;;;;;13.53;67.15;102764.41;1051921;28;721;-61
2021/11/23 01:31:11;;;;;;;;;;;;;;;13.54;67.01;102760.78;1048355;28;836;-60
2021/11/23 01:32:01;;;;;;;;;;;;;;;13.54;67.70;102771.50;1047924;28;678;-61
2021/11/23 01:32:52;;;;;;;;;;;;;;;13.56;67.17;102766.06;1048285;28;768;-59
2021/11/23 01:33:42;;;;;;;;;;;;;;;13.54;67.45;102760.78;1047998;28;655;-60
2021/11/23 01:34:33;;;;;;;;;;;;;;;13.55;67.58;102767.88;1048237;28;638;-60
2021/11/23 01:35:23;;;;;;;;;;;;;;;13.56;67.13;102763.41;1047865;28;737;-61
2021/11/23 01:36:13;;;;;;;;;;;;;;;13.55;67.70;102762.53;1048243;28;776;-61
2021/11/23 01:37:04;;;;;;;;;;;;;;;13.56;67.74;102763.41;1047846;28;786;-60
2021/11/23 01:37:55;;;;;;;;;;;;;;;13.54;67.37;102766.13;1047995;28;929;-61
2021/11/23 01:38:46;;;;;;;;;;;;;;;13.54;67.65;102768.81;1048258;28;626;-60
2021/11/23 01:39:36;;;;;;;;;;;;;;;13.54;67.85;102760.78;1047863;28;618;-61
2021/11/23 01:40:26;;;;;;;;;;;;;;;13.55;67.27;102761.66;1048067;28;673;-60
2021/11/23 01:41:17;;;;;;;;;;;;;;;13.53;67.43;102759.03;1048097;28;688;-62
2021/11/23 01:42:07;;;;;;;;;;;;;;;13.54;67.85;102762.59;1047982;28;606;-62
2021/11/23 01:42:58;;;;;;;;;;;;;;;13.52;67.84;102757.31;1048281;28;662;-61
2021/11/23 01:43:48;;;;;;;;;;;;;;;13.52;67.37;102751.94;1047927;28;1890;-61
2021/11/23 01:44:38;;;;;;;;;;;;;;;13.53;68.03;102753.69;1050446;28;1668;-62
2021/11/23 01:45:29;;;;;;;;;;;;;;;13.53;67.16;102759.03;1051733;28;745;-61
2021/11/23 01:46:19;;;;;;;;;;;;;;;13.54;67.66;102758.09;1052109;28;673;-61
2021/11/23 01:47:10;;;;;;;;;;;;;;;13.53;67.35;102761.72;1047819;28;657;-61
2021/11/23 01:48:00;;;;;;;;;;;;;;;13.53;67.86;102753.69;1047755;28;700;-61
2021/11/23 01:48:50;;;;;;;;;;;;;;;13.53;67.35;102756.38;1051669;28;622;-61
2021/11/23 01:49:41;;;;;;;;;;;;;;;13.53;67.71;102755.50;1051695;28;735;-61
2021/11/23 01:50:31;;;;;;;;;;;;;;;13.52;67.82;102754.63;1051920;28;1574;-61
2021/11/23 01:51:22;;;;;;;;;;;;;;;13.52;67.25;102756.44;1051907;28;778;-61
2021/11/23 01:52:12;;;;;;;;;;;;;;;13.52;67.09;102756.44;1051982;28;628;-61
2021/11/23 01:53:04;;;;;;;;;;;;;;;13.52;68.14;102754.63;1047581;28;1095;-61
2021/11/23 01:53:54;;;;;;;;;;;;;;;13.52;68.04;102756.44;1047775;28;845;-61
2021/11/23 01:54:45;;;;;;;;;;;;;;;13.53;68.02;102752.81;1052430;28;1196;-61
2021/11/23 01:55:36;;;;;;;;;;;;;;;13.53;67.97;102756.38;1052669;28;700;-61
2021/11/23 01:56:26;;;;;;;;;;;;;;;13.51;67.36;102755.56;1051985;28;611;-61
2021/11/23 01:57:16;;;;;;;;;;;;;;;13.52;67.53;102749.25;1052125;28;674;-60
2021/11/23 01:58:07;;;;;;;;;;;;;;;13.53;67.50;102758.16;1053277;28;811;-61
2021/11/23 01:58:57;;;;;;;;;;;;;;;13.50;67.33;102750.28;1052827;28;665;-61
2021/11/23 01:59:48;;;;;;;;;;;;;;;13.50;68.24;102752.97;1053049;28;755;-61
2021/11/23 02:00:38;;;;;;;;;;;;;;;13.51;67.98;102752.00;1052739;28;619;-61
2021/11/23 02:01:29;;;;;;;;;;;;;;;13.51;67.28;102750.22;1052995;28;669;-61
2021/11/23 02:02:19;;;;;;;;;;;;;;;13.50;68.00;102743.09;1052662;28;818;-61
2021/11/23 02:03:10;;;;;;;;;;;;;;;13.52;67.55;102753.75;1053395;28;725;-61
2021/11/23 02:04:00;;;;;;;;;;;;;;;13.52;67.46;102751.06;1052803;28;710;-61
2021/11/23 02:04:51;;;;;;;;;;;;;;;13.50;67.99;102748.47;1052828;28;678;-62
2021/11/23 02:05:41;;;;;;;;;;;;;;;13.49;68.12;102752.09;1053415;28;740;-62
2021/11/23 02:06:31;;;;;;;;;;;;;;;13.50;67.96;102748.47;1052859;28;717;-62
2021/11/23 02:07:22;;;;;;;;;;;;;;;13.50;67.80;102747.59;1053033;28;658;-61
2021/11/23 02:08:12;;;;;;;;;;;;;;;13.50;67.94;102748.47;1052740;28;986;-60
2021/11/23 02:09:03;;;;;;;;;;;;;;;13.51;67.92;102743.97;1052809;28;631;-62
2021/11/23 02:09:53;;;;;;;;;;;;;;;13.52;67.99;102751.06;1052569;28;610;-61
2021/11/23 02:10:43;;;;;;;;;;;;;;;13.50;68.00;102742.25;1049422;28;1393;-62
2021/11/23 02:11:34;;;;;;;;;;;;;;;13.50;67.26;102743.09;1048684;28;618;-62
2021/11/23 02:12:24;;;;;;;;;;;;;;;13.50;68.22;102740.44;1048824;28;746;-61
2021/11/23 02:13:15;;;;;;;;;;;;;;;13.50;67.74;102737.75;1048959;28;653;-61
2021/11/23 02:14:05;;;;;;;;;;;;;;;13.49;67.64;102735.16;1048622;28;774;-63
2021/11/23 02:14:55;;;;;;;;;;;;;;;13.49;68.33;102738.69;1048864;28;766;-61
2021/11/23 02:15:46;;;;;;;;;;;;;;;13.50;68.02;102732.41;1048587;28;594;-61
2021/11/23 02:16:36;;;;;;;;;;;;;;;13.50;67.98;102743.09;1044906;28;796;-61
2021/11/23 02:17:27;;;;;;;;;;;;;;;13.50;67.33;102742.25;1050049;28;685;-62
2021/11/23 02:18:17;;;;;;;;;;;;;;;13.48;67.73;102736.94;1047961;28;720;-61
2021/11/23 02:19:08;;;;;;;;;;;;;;;13.49;67.46;102737.81;1048451;28;770;-61
2021/11/23 02:19:59;;;;;;;;;;;;;;;13.49;67.34;102740.50;1049925;28;701;-60
2021/11/23 02:20:49;;;;;;;;;;;;;;;13.50;68.20;102735.06;1048057;28;751;-61
2021/11/23 02:21:39;;;;;;;;;;;;;;;13.48;67.96;102736.09;1048478;28;889;-60
2021/11/23 02:22:30;;;;;;;;;;;;;;;13.48;68.33;102734.28;1047994;28;623;-61
2021/11/23 02:23:21;;;;;;;;;;;;;;;13.49;67.37;102736.00;1048502;28;733;-61
2021/11/23 02:24:11;;;;;;;;;;;;;;;13.50;67.47;102743.09;1048100;28;732;-61
2021/11/23 02:25:01;;;;;;;;;;;;;;;13.50;67.85;102727.03;1048282;28;767;-61
2021/11/23 02:25:52;;;;;;;;;;;;;;;13.49;68.08;102733.34;1048530;28;631;-60
2021/11/23 02:26:42;;;;;;;;;;;;;;;13.49;67.97;102727.97;1048249;28;689;-60
2021/11/23 02:27:33;;;;;;;;;;;;;;;13.47;68.26;102737.88;1048428;28;742;-61
2021/11/23 02:28:23;;;;;;;;;;;;;;;13.47;67.77;102734.34;1048598;28;645;-60
2021/11/23 02:29:14;;;;;;;;;;;;;;;13.47;67.27;102735.22;1045534;28;738;-61
2021/11/23 02:30:04;;;;;;;;;;;;;;;13.48;67.77;102739.63;1048999;28;1492;-61
2021/11/23 02:30:54;;;;;;;;;;;;;;;13.47;68.32;102737.88;1048986;28;630;-61
2021/11/23 02:31:45;;;;;;;;;;;;;;;13.48;68.17;102734.28;1053005;28;787;-61
2021/11/23 02:32:35;;;;;;;;;;;;;;;13.49;67.39;102735.16;1052126;28;607;-61
2021/11/23 02:33:26;;;;;;;;;;;;;;;13.49;67.40;102741.38;1052742;28;770;-61
2021/11/23 02:34:16;;;;;;;;;;;;;;;13.50;67.34;102743.09;1052986;28;1178;-61
2021/11/23 02:35:07;;;;;;;;;;;;;;;13.50;67.60;102736.88;1053026;28;668;-61
2021/11/23 02:35:57;;;;;;;;;;;;;;;13.48;67.43;102734.28;1052912;28;688;-61
2021/11/23 02:36:48;;;;;;;;;;;;;;;13.48;67.47;102736.09;1052624;28;669;-61
2021/11/23 02:37:38;;;;;;;;;;;;;;;13.47;67.64;102737.88;1052782;28;928;-61
2021/11/23 02:38:29;;;;;;;;;;;;;;;13.47;67.87;102724.50;1053165;28;649;-61
2021/11/23 02:39:19;;;;;;;;;;;;;;;13.47;68.26;102723.63;1052860;28;657;-60
2021/11/23 02:40:10;;;;;;;;;;;;;;;13.47;67.68;102720.94;1052933;28;764;-61
2021/11/23 02:41:00;;;;;;;;;;;;;;;13.46;68.35;102717.41;1052727;28;677;-60
2021/11/23 02:41:50;;;;;;;;;;;;;;;13.48;67.99;102717.34;1052762;28;823;-61
2021/11/23 02:42:41;;;;;;;;;;;;;;;13.47;67.74;102732.53;1053073;28;697;-61
2021/11/23 02:43:31;;;;;;;;;;;;;;;13.47;68.04;102724.50;1052625;28;1974;-62
2021/11/23 02:44:22;;;;;;;;;;;;;;;13.47;67.85;102720.94;1052949;28;661;-61
2021/11/23 02:45:12;;;;;;;;;;;;;;;13.48;68.57;102722.69;1052705;28;752;-62
2021/11/23 02:46:02;;;;;;;;;;;;;;;13.46;68.33;102719.22;1052939;28;774;-62
2021/11/23 02:46:53;;;;;;;;;;;;;;;13.46;68.08;102722.75;1053893;28;777;-61
2021/11/23 02:47:43;;;;;;;;;;;;;;;13.46;67.94;102724.56;1052796;28;1593;-61
2021/11/23 02:48:34;;;;;;;;;;;;;;;13.46;67.76;102725.44;1053613;28;662;-62
2021/11/23 02:49:24;;;;;;;;;;;;;;;13.45;67.75;102729.06;1053346;28;667;-62
2021/11/23 02:50:15;;;;;;;;;;;;;;;13.45;67.72;102726.38;1053424;28;733;-62
2021/11/23 02:51:10;;;;;;;;;;;;;;;13.46;68.61;102725.44;1053211;28;767;-62
2021/11/23 02:52:00;;;;;;;;;;;;;;;13.47;68.30;102732.53;1053453;28;657;-61
2021/11/23 02:52:51;;;;;;;;;;;;;;;13.47;67.97;102731.66;1053106;28;1374;-62
2021/11/23 02:53:41;;;;;;;;;;;;;;;13.47;68.07;102729.00;1053425;28;678;-61
2021/11/23 02:54:32;;;;;;;;;;;;;;;13.45;68.27;102723.69;1053373;28;1305;-62
2021/11/23 02:55:22;;;;;;;;;;;;;;;13.46;67.82;102722.75;1052111;28;720;-61
2021/11/23 02:56:13;;;;;;;;;;;;;;;13.46;67.63;102725.44;1053382;28;672;-61
2021/11/23 02:57:03;;;;;;;;;;;;;;;13.46;68.61;102730.78;1053256;28;684;-61
2021/11/23 02:57:54;;;;;;;;;;;;;;;13.46;67.73;102724.56;1053504;28;621;-60
2021/11/23 02:58:46;;;;;;;;;;;;;;;13.47;67.89;102721.81;1053172;28;843;-61
2021/11/23 02:59:37;;;;;;;;;;;;;;;13.46;68.64;102728.13;1052194;28;732;-59
2021/11/23 03:00:27;;;;;;;;;;;;;;;13.45;68.19;102726.38;1053882;28;751;-61
2021/11/23 03:01:18;;;;;;;;;;;;;;;13.45;67.79;102721.03;1053415;28;891;-61
2021/11/23 03:02:08;;;;;;;;;;;;;;;13.45;67.92;102722.81;1053272;28;653;-61
2021/11/23 03:02:59;;;;;;;;;;;;;;;13.44;67.68;102721.97;1053445;28;1046;-62
2021/11/23 03:03:49;;;;;;;;;;;;;;;13.44;68.50;102721.97;1052917;28;1902;-62
2021/11/23 03:04:39;;;;;;;;;;;;;;;13.45;68.25;102723.69;1053393;28;769;-61
2021/11/23 03:05:30;;;;;;;;;;;;;;;13.45;68.48;102729.06;1053605;28;684;-60
2021/11/23 03:06:21;;;;;;;;;;;;;;;13.45;67.83;102731.72;1053331;28;646;-60
2021/11/23 03:07:12;;;;;;;;;;;;;;;13.46;67.67;102724.56;1054197;28;1604;-60
2021/11/23 03:08:02;;;;;;;;;;;;;;;13.46;68.56;102724.56;1056938;28;1062;-60
2021/11/23 03:08:54;;;;;;;;;;;;;;;13.46;68.66;102722.75;1056899;28;868;-60
2021/11/23 03:09:44;;;;;;;;;;;;;;;13.45;68.65;102718.34;1056776;28;647;-60
2021/11/23 03:10:34;;;;;;;;;;;;;;;13.44;67.80;102716.59;1057103;28;681;-60
2021/11/23 03:11:25;;;;;;;;;;;;;;;13.45;67.95;102718.34;1057145;28;777;-61
2021/11/23 03:12:15;;;;;;;;;;;;;;;13.45;67.74;102715.66;1056879;28;619;-61
2021/11/23 03:13:06;;;;;;;;;;;;;;;13.45;68.65;102720.16;1057027;28;761;-61
2021/11/23 03:13:56;;;;;;;;;;;;;;;13.44;68.60;102711.25;1056793;28;860;-61
2021/11/23 03:14:47;;;;;;;;;;;;;;;13.42;68.28;102713.16;1053190;28;629;-61
2021/11/23 03:15:37;;;;;;;;;;;;;;;13.44;67.98;102715.72;1052926;28;688;-61
2021/11/23 03:16:27;;;;;;;;;;;;;;;13.43;68.38;102706.88;1056344;28;658;-62
2021/11/23 03:17:18;;;;;;;;;;;;;;;13.44;68.17;102708.56;1057082;28;835;-60
2021/11/23 03:18:09;;;;;;;;;;;;;;;13.45;67.80;102712.13;1056861;28;625;-60
2021/11/23 03:19:00;;;;;;;;;;;;;;;13.43;68.38;102712.22;1057120;28;681;-61
2021/11/23 03:19:50;;;;;;;;;;;;;;;13.43;68.67;102704.19;1056735;28;721;-61
2021/11/23 03:20:44;;;;;;;;;;;;;;;13.43;68.79;102709.53;1056896;28;653;-61
2021/11/23 03:21:35;;;;;;;;;;;;;;;13.43;68.20;102709.53;1056747;28;784;-60
2021/11/23 03:22:25;;;;;;;;;;;;;;;13.43;68.53;102711.34;1056773;28;688;-60
2021/11/23 03:23:16;;;;;;;;;;;;;;;13.43;68.04;102701.50;1057017;28;673;-60
2021/11/23 03:24:06;;;;;;;;;;;;;;;13.43;68.09;102709.53;1057956;28;755;-60
2021/11/23 03:24:57;;;;;;;;;;;;;;;13.42;68.73;102702.44;1057088;28;688;-61
2021/11/23 03:25:47;;;;;;;;;;;;;;;13.43;68.76;102704.19;1056767;28;726;-61
2021/11/23 03:26:38;;;;;;;;;;;;;;;13.43;67.91;102704.19;1056960;28;610;-61
2021/11/23 03:27:28;;;;;;;;;;;;;;;13.43;67.83;102703.31;1053487;28;773;-61
2021/11/23 03:28:18;;;;;;;;;;;;;;;13.42;67.89;102702.44;1050804;28;783;-61
2021/11/23 03:29:09;;;;;;;;;;;;;;;13.43;67.98;102703.31;1044567;28;745;-61
2021/11/23 03:29:59;;;;;;;;;;;;;;;13.43;68.56;102706.88;1051018;28;914;-61
2021/11/23 03:30:50;;;;;;;;;;;;;;;13.43;68.83;102698.81;1047491;28;650;-61
2021/11/23 03:31:41;;;;;;;;;;;;;;;13.43;68.68;102701.50;1049809;28;689;-61
2021/11/23 03:32:31;;;;;;;;;;;;;;;13.43;67.94;102704.19;1049653;28;857;-61
2021/11/23 03:33:21;;;;;;;;;;;;;;;13.42;68.25;102697.09;1044707;28;807;-61
2021/11/23 03:34:14;;;;;;;;;;;;;;;13.43;68.41;102704.19;1048832;28;886;-60
2021/11/23 03:35:04;;;;;;;;;;;;;;;13.43;68.88;102692.59;1049421;28;634;-61
2021/11/23 03:35:55;;;;;;;;;;;;;;;13.43;68.78;102698.81;1049446;28;842;-61
2021/11/23 03:36:45;;;;;;;;;;;;;;;13.43;67.78;102698.81;1053201;28;617;-62
2021/11/23 03:37:36;;;;;;;;;;;;;;;13.43;68.12;102697.97;1052385;28;905;-62
2021/11/23 03:38:28;;;;;;;;;;;;;;;13.42;68.67;102697.09;1047337;28;1487;-61
2021/11/23 03:39:18;;;;;;;;;;;;;;;13.41;68.04;102700.72;1049797;28;846;-61
2021/11/23 03:40:09;;;;;;;;;;;;;;;13.41;68.18;102692.66;1049694;28;863;-61
2021/11/23 03:40:59;;;;;;;;;;;;;;;13.41;68.04;102694.47;1049728;28;803;-60
2021/11/23 03:41:50;;;;;;;;;;;;;;;13.40;67.97;102693.63;1049833;28;716;-61
2021/11/23 03:42:40;;;;;;;;;;;;;;;13.41;68.25;102691.81;1049024;28;737;-62
2021/11/23 03:43:30;;;;;;;;;;;;;;;13.41;68.18;102695.34;1049730;28;685;-61
2021/11/23 03:44:21;;;;;;;;;;;;;;;13.41;68.72;102694.47;1049708;28;787;-62
2021/11/23 03:45:11;;;;;;;;;;;;;;;13.40;68.49;102690.06;1049640;28;645;-60
2021/11/23 03:46:03;;;;;;;;;;;;;;;13.41;68.79;102698.03;1049811;28;819;-62
2021/11/23 03:46:53;;;;;;;;;;;;;;;13.41;68.77;102699.84;1049606;28;1589;-62
2021/11/23 03:47:43;;;;;;;;;;;;;;;13.41;68.13;102698.03;1049153;28;618;-62
2021/11/23 03:48:34;;;;;;;;;;;;;;;13.41;68.68;102700.72;1050106;28;1666;-63
2021/11/23 03:49:24;;;;;;;;;;;;;;;13.41;67.93;102699.84;1052381;28;686;-62
2021/11/23 03:50:16;;;;;;;;;;;;;;;13.40;67.95;102696.28;1052612;28;856;-63
2021/11/23 03:51:06;;;;;;;;;;;;;;;13.41;68.72;102695.34;1052610;28;808;-63
2021/11/23 03:51:57;;;;;;;;;;;;;;;13.42;68.72;102691.72;1052644;28;657;-63
2021/11/23 03:52:48;;;;;;;;;;;;;;;13.41;68.71;102692.66;1052180;28;1031;-63
2021/11/23 03:53:38;;;;;;;;;;;;;;;13.41;68.90;102695.34;1052995;28;634;-63
2021/11/23 03:54:28;;;;;;;;;;;;;;;13.41;67.88;102700.72;1052335;28;1230;-63
2021/11/23 03:55:19;;;;;;;;;;;;;;;13.40;67.93;102693.63;1052571;28;796;-63
2021/11/23 03:56:10;;;;;;;;;;;;;;;13.40;68.90;102698.09;1052419;28;747;-63
2021/11/23 03:57:00;;;;;;;;;;;;;;;13.40;68.02;102701.66;1049378;28;1116;-63
2021/11/23 03:57:52;;;;;;;;;;;;;;;13.41;68.18;102700.72;1045352;28;708;-63
2021/11/23 03:58:42;;;;;;;;;;;;;;;13.39;68.94;102697.22;1045237;28;713;-63
2021/11/23 03:59:32;;;;;;;;;;;;;;;13.40;68.06;102693.63;1049680;28;737;-63
2021/11/23 04:00:23;;;;;;;;;;;;;;;13.40;67.96;102696.28;1048557;28;721;-63
2021/11/23 04:01:13;;;;;;;;;;;;;;;13.40;68.97;102698.97;1048396;28;864;-63
2021/11/23 04:02:04;;;;;;;;;;;;;;;13.40;68.71;102692.75;1048641;28;723;-63
2021/11/23 04:02:54;;;;;;;;;;;;;;;13.40;68.48;102693.63;1048343;28;704;-63
2021/11/23 04:03:45;;;;;;;;;;;;;;;13.40;68.96;102693.63;1048854;28;1898;-63
2021/11/23 04:04:35;;;;;;;;;;;;;;;13.41;67.91;102697.16;1048437;28;614;-63
2021/11/23 04:05:26;;;;;;;;;;;;;;;13.41;68.10;102700.72;1048605;28;871;-61
2021/11/23 04:06:16;;;;;;;;;;;;;;;13.40;68.94;102693.63;1048459;28;1749;-62
2021/11/23 04:07:07;;;;;;;;;;;;;;;13.40;68.75;102688.25;1048895;28;782;-63
2021/11/23 04:07:57;;;;;;;;;;;;;;;13.39;68.38;102689.19;1049394;28;1026;-62
2021/11/23 04:08:47;;;;;;;;;;;;;;;13.39;67.89;102691.88;1044681;28;811;-62
2021/11/23 04:09:38;;;;;;;;;;;;;;;13.39;68.23;102691.88;1048727;28;845;-63
2021/11/23 04:10:28;;;;;;;;;;;;;;;13.39;68.54;102696.34;1048554;28;744;-62
2021/11/23 04:11:19;;;;;;;;;;;;;;;13.38;68.86;102690.13;1049620;28;749;-63
2021/11/23 04:12:09;;;;;;;;;;;;;;;13.38;68.13;102687.47;1049547;28;723;-63
2021/11/23 04:12:59;;;;;;;;;;;;;;;13.38;68.35;102694.63;1049620;28;803;-63
2021/11/23 04:13:50;;;;;;;;;;;;;;;13.38;68.05;102695.50;1049562;28;908;-63
2021/11/23 04:14:40;;;;;;;;;;;;;;;13.38;69.02;102695.50;1049494;28;1601;-63
2021/11/23 04:15:31;;;;;;;;;;;;;;;13.38;68.59;102689.25;1048346;28;766;-63
2021/11/23 04:16:23;;;;;;;;;;;;;;;13.38;68.02;102687.47;1053039;28;688;-62
2021/11/23 04:17:14;;;;;;;;;;;;;;;13.38;68.57;102691.94;1052786;28;864;-62
2021/11/23 04:18:04;;;;;;;;;;;;;;;13.38;68.48;102700.84;1052486;28;872;-63
2021/11/23 04:18:54;;;;;;;;;;;;;;;13.38;68.47;102695.50;1053049;28;606;-63
2021/11/23 04:19:45;;;;;;;;;;;;;;;13.38;68.22;102695.50;1052399;28;853;-63
2021/11/23 04:20:35;;;;;;;;;;;;;;;13.39;68.02;102696.34;1051641;28;614;-63
2021/11/23 04:21:26;;;;;;;;;;;;;;;13.38;68.07;102694.63;1052444;28;732;-63
2021/11/23 04:22:16;;;;;;;;;;;;;;;13.39;68.87;102694.56;1052422;28;837;-63
2021/11/23 04:23:06;;;;;;;;;;;;;;;13.38;68.99;102694.63;1052946;28;708;-63
2021/11/23 04:23:57;;;;;;;;;;;;;;;13.37;68.40;102688.41;1052405;28;1971;-63
2021/11/23 04:24:47;;;;;;;;;;;;;;;13.37;68.65;102693.75;1052382;28;638;-62
2021/11/23 04:25:38;;;;;;;;;;;;;;;13.39;68.76;102693.69;1052636;28;729;-62